Latest Coastal Weather Observations for Dum In Mirrie

IDD60701

Issued at 1:51 am CST Friday 6 May 2016 (issued every 10 minutes, with the page automatically refreshed every 10 minutes)

About coastal observations | Map of coastal stations | Coastal observations for NT | Marine services | Other Formats
Station Details ID: 014277 Name: DUM IN MIRRIE AIRSTRIP Lat: -12.63 Lon: 130.37 Height: 3.5 m
Data from the previous 72 hours. | See also: Recent months at Dum In Mirrie
Date/Time
CST
Temp

°C
Wind Pressure Rain
since 9am
mm
Weather Cloud Vis
km
Sea
Height
m
Swell
Dir
 
Speed
knots
Gust
knots
hPa Trend Height
m
Period
s
Dir
06/01:30am 26.0 CALM 0 0 1009.5 - 0.0 - - - - - - -
06/01:00am 26.1 CALM 0 0 1009.6 - 0.0 - - - - - - -
06/12:30am 26.2 NE 1 1 1009.8 - 0.0 - - - - - - -
06/12:00am 26.3 NE 1 2 1010.0 - 0.0 - - - - - - -
 
Date/Time
CST
Temp

°C
Wind Pressure Rain
since 9am
mm
Weather Cloud Vis
km
Sea
Height
m
Swell
Dir
 
Speed
knots
Gust
knots
hPa Trend Height
m
Period
s
Dir
05/11:30pm 26.3 NE 2 3 1010.1 - 0.0 - - - - - - -
05/11:00pm 26.3 ENE 1 2 1010.2 - 0.0 - - - - - - -
05/10:30pm 27.1 NE 1 2 1010.3 - 0.0 - - - - - - -
05/10:00pm 28.0 NE 2 3 1010.1 - 0.0 - - - - - - -
05/09:30pm 28.4 NE 2 3 1010.0 - 0.0 - - - - - - -
05/09:00pm 28.9 NE 3 5 1009.9 - 0.0 - - - - - - -
05/08:30pm 29.3 NE 4 6 1009.5 - 0.0 - - - - - - -
05/08:00pm 29.3 NE 4 6 1009.1 - 0.0 - - - - - - -
05/07:30pm 29.4 NE 4 7 1008.8 - 0.0 - - - - - - -
05/07:00pm 29.6 NE 4 6 1008.4 - 0.0 - - - - - - -
05/06:30pm 29.8 NE 5 9 1008.2 - 0.0 - - - - - - -
05/06:00pm 30.4 NE 6 11 1008.0 - 0.0 - - - - - - -
05/05:30pm 30.5 NNE 7 13 1007.9 - 0.0 - - - - - - -
05/05:00pm 31.5 NE 7 11 1007.9 - 0.0 - - - - - - -
05/04:30pm 31.6 NNE 8 13 1008.1 - 0.0 - - - - - - -
05/04:00pm 32.1 NNE 7 12 1008.0 - 0.0 - - - - - - -
05/03:30pm 32.4 N 7 13 1008.2 - 0.0 - - - - - - -
05/03:00pm 31.4 N 8 11 1008.5 - 0.0 - - - - - - -
05/02:30pm 32.6 N 6 10 1008.7 - 0.0 - - - - - - -
05/02:00pm 33.2 NE 5 8 1009.0 - 0.0 - - - - - - -
05/01:30pm 33.2 ENE 5 8 1009.4 - 0.0 - - - - - - -
05/01:00pm 32.2 ENE 5 9 1009.9 - 0.0 - - - - - - -
05/12:30pm 32.2 ENE 4 10 1010.4 - 0.0 - - - - - - -
05/12:00pm 31.8 ENE 5 9 1010.9 - 0.0 - - - - - - -
05/11:30am 31.7 ENE 5 8 1011.4 - 0.0 - - - - - - -
05/11:00am 31.3 ENE 5 11 1011.9 - 0.0 - - - - - - -
05/10:30am 30.7 E 7 10 1012.1 - 0.0 - - - - - - -
05/10:00am 29.9 E 6 9 1012.1 - 0.0 - - - - - - -
05/09:30am 29.5 ESE 3 6 1012.1 - 0.0 - - - - - - -
05/09:00am 28.5 ESE 5 7 1011.8 - 35.2 - - - - - - -
05/08:30am 27.7 ESE 3 6 1011.5 - 35.2 - - - - - - -
05/08:00am 26.8 ESE 4 5 1011.1 - 35.2 - - - - - - -
05/07:30am 25.7 ESE 3 5 1011.0 - 35.2 - - - - - - -
05/07:00am 25.1 SE 2 4 1010.8 - 35.2 - - - - - - -
05/06:30am 25.1 ESE 3 4 1010.5 - 35.2 - - - - - - -
05/06:00am 25.6 E 5 10 1010.3 - 35.0 - - - - - - -
05/05:30am 26.1 SE 3 7 1010.3 - 35.0 - - - - - - -
05/05:00am 25.9 SSE 3 8 1010.3 - 35.0 - - - - - - -
05/04:30am 25.8 SE 3 7 1010.4 - 35.0 - - - - - - -
05/04:00am 25.6 SE 3 6 1010.3 - 35.0 - - - - - - -
05/03:30am 25.6 SE 4 9 1010.4 - 35.0 - - - - - - -
05/03:00am 25.8 SSE 4 7 1010.6 - 35.0 - - - - - - -
05/02:30am 25.5 SSE 2 4 1010.8 - 35.0 - - - - - - -
05/02:00am 25.4 SSE 3 6 1011.1 - 35.0 - - - - - - -
05/01:30am 26.1 SE 1 2 1011.0 - 35.0 - - - - - - -
05/01:00am 26.1 CALM 0 1 1011.1 - 35.0 - - - - - - -
05/12:30am 26.1 CALM 0 0 1011.1 - 34.8 - - - - - - -
05/12:00am 26.2 CALM 0 0 1011.4 - 34.8 - - - - - - -
 
Date/Time
CST
Temp

°C
Wind Pressure Rain
since 9am
mm
Weather Cloud Vis
km
Sea
Height
m
Swell
Dir
 
Speed
knots
Gust
knots
hPa Trend Height
m
Period
s
Dir
04/11:30pm 26.6 CALM 0 0 1011.6 - 34.8 - - - - - - -
04/11:00pm 27.1 CALM 0 0 1011.9 - 34.8 - - - - - - -
04/10:30pm 27.3 NNW 1 3 1012.0 - 34.8 - - - - - - -
04/10:00pm 27.4 N 2 4 1011.9 - 34.8 - - - - - - -
04/09:30pm 27.3 N 2 4 1011.9 - 34.8 - - - - - - -
04/09:00pm 26.9 NNW 2 4 1011.8 - 34.8 - - - - - - -
04/08:30pm 26.3 N 1 2 1011.6 - 34.8 - - - - - - -
04/08:00pm 25.5 N 2 3 1010.8 - 34.8 - - - - - - -
04/07:30pm 25.5 CALM 0 1 1010.5 - 34.8 - - - - - - -
04/07:00pm 24.9 NNE 2 3 1010.1 - 34.8 - - - - - - -
04/06:30pm 25.0 CALM 0 0 1009.9 - 34.8 - - - - - - -
04/06:00pm 24.9 CALM 0 0 1009.5 - 34.8 - - - - - - -
04/05:30pm 24.7 CALM 0 1 1009.4 - 34.8 - - - - - - -
04/05:00pm 24.3 ESE 2 6 1009.9 - 34.8 - - - - - - -
04/04:30pm 25.5 ENE 10 17 1009.7 - 32.2 - - - - - - -
04/04:00pm 27.1 NNE 3 5 1009.2 - 32.2 - - - - - - -
04/03:30pm 26.1 N 3 4 1009.1 - 32.2 - - - - - - -
04/03:00pm 25.5 N 2 3 1009.5 - 32.2 Recent precip. - - - - - -
04/02:30pm 24.9 NNE 9 16 1009.8 - 30.2 - - - - - - -
04/02:00pm 25.2 ESE 11 18 1010.0 - 17.8 - - - - - - -
04/01:50pm 27.5 E 8 19 1009.8 - 0.4 - - - - - - -
04/01:30pm 32.9 N 6 10 1009.6 - 0.0 - - - - - - -
04/01:00pm 32.8 N 8 13 1010.0 - 0.0 - - - - - - -
04/12:30pm 33.6 ENE 7 11 1010.4 - 0.0 - - - - - - -
04/12:00pm 32.5 ENE 9 13 1010.9 - 0.0 - - - - - - -
04/11:30am 32.7 E 6 12 1011.5 - 0.0 - - - - - - -
04/11:00am 31.8 E 6 9 1011.9 - 0.0 - - - - - - -
04/10:30am 31.0 E 7 10 1012.3 - 0.0 - - - - - - -
04/10:00am 30.5 E 7 10 1012.3 - 0.0 - - - - - - -
04/09:30am 30.0 E 7 11 1012.3 - 0.0 - - - - - - -
04/09:00am 28.9 E 7 11 1011.9 - 0.0 - - - - - - -
04/08:30am 28.2 E 5 7 1011.9 - 0.0 - - - - - - -
04/08:00am 27.3 ESE 4 7 1011.8 - 0.0 - - - - - - -
04/07:30am 26.1 SE 2 4 1011.4 - 0.0 - - - - - - -
04/07:00am 25.6 SE 3 5 1010.8 - 0.0 - - - - - - -
04/06:30am 25.6 SE 2 3 1010.5 - 0.0 - - - - - - -
04/06:00am 25.7 SE 2 4 1010.4 - 0.0 - - - - - - -
04/05:30am 25.9 SE 3 7 1010.1 - 0.0 - - - - - - -
04/05:00am 25.5 SE 2 3 1010.2 - 0.0 - - - - - - -
04/04:30am 25.6 SE 2 5 1010.4 - 0.0 - - - - - - -
04/04:00am 25.6 ESE 2 4 1010.4 - 0.0 - - - - - - -
04/03:30am 25.9 SSE 2 5 1010.6 - 0.0 - - - - - - -
04/03:00am 25.9 SSE 2 5 1010.7 - 0.0 - - - - - - -
04/02:30am 25.7 SE 2 3 1010.9 - 0.0 - - - - - - -
04/02:00am 25.6 ESE 2 2 1011.0 - 0.0 - - - - - - -
04/01:30am 25.7 SE 2 4 1011.3 - 0.0 - - - - - - -
04/01:00am 25.6 SE 2 5 1011.6 - 0.0 - - - - - - -
04/12:30am 25.6 SE 1 3 1011.2 - 0.0 - - - - - - -
04/12:00am 25.7 SE 1 3 1011.4 - 0.0 - - - - - - -
 
Date/Time
CST
Temp

°C
Wind Pressure Rain
since 9am
mm
Weather Cloud Vis
km
Sea
Height
m
Swell
Dir
 
Speed
knots
Gust
knots
hPa Trend Height
m
Period
s
Dir
03/11:30pm 25.5 CALM 0 0 1011.3 - 0.0 - - - - - - -
03/11:00pm 25.7 CALM 0 0 1011.8 - 0.0 - - - - - - -
03/10:30pm 26.4 ESE 2 3 1011.8 - 0.0 - - - - - - -
03/10:00pm 26.8 SE 2 3 1012.1 - 0.0 - - - - - - -
03/09:30pm 26.9 SSE 2 3 1012.2 - 0.0 - - - - - - -
03/09:00pm 26.9 SE 2 3 1012.0 - 0.0 - - - - - - -
03/08:30pm 27.0 SE 2 4 1011.5 - 0.0 - - - - - - -
03/08:00pm 27.0 ENE 1 1 1010.9 - 0.0 - - - - - - -
03/07:30pm 27.1 NE 2 3 1010.3 - 0.0 - - - - - - -
03/07:00pm 27.0 NE 3 6 1009.6 - 0.0 - - - - - - -
03/06:30pm 27.3 NE 3 6 1009.4 - 0.0 - - - - - - -
03/06:00pm 27.8 NE 5 8 1009.1 - 0.0 - - - - - - -
03/05:30pm 27.3 NE 5 10 1008.7 - 0.0 - - - - - - -
03/05:00pm 27.4 ENE 5 8 1008.6 - 0.0 - - - - - - -
03/04:30pm 27.3 ENE 7 10 1009.5 - 0.0 - - - - - - -
03/04:00pm 27.0 NE 13 23 1009.6 - 0.0 - - - - - - -
03/03:40pm 28.0 NNE 15 29 1009.2 - 0.0 - - - - - - -
03/03:30pm 32.0 NNE 9 18 1008.7 - 0.0 - - - - - - -
03/03:00pm 31.6 NNE 10 16 1008.8 - 0.0 - - - - - - -
03/02:30pm 32.2 N 9 15 1008.9 - 0.0 - - - - - - -
03/02:00pm 32.7 N 7 13 1008.9 - 0.0 - - - - - - -
03/01:30pm 31.6 N 5 9 1009.4 - 0.0 - - - - - - -
03/01:00pm 32.8 ENE 6 10 1010.2 - 0.0 - - - - - - -
03/12:30pm 32.4 ENE 4 7 1010.9 - 0.0 - - - - - - -
03/12:00pm 32.7 E 6 9 1011.1 - 0.0 - - - - - - -
03/11:30am 32.2 E 5 9 1011.7 - 0.0 - - - - - - -
03/11:00am 31.1 E 5 8 1012.2 - 0.0 - - - - - - -
03/10:30am 30.1 ESE 6 9 1012.3 - 0.0 - - - - - - -
03/10:00am 28.9 SE 4 7 1012.3 - 0.0 - - - - - - -
03/09:30am 28.2 SE 3 5 1012.3 - 0.0 - - - - - - -
03/09:00am 27.9 ESE 5 8 1012.0 - 0.0 - - - - - - -
03/08:30am 27.4 E 5 9 1011.6 - 0.0 - - - - - - -
03/08:00am 26.4 E 4 7 1011.3 - 0.0 - - - - - - -
03/07:30am 25.3 ESE 4 7 1011.3 - 0.0 - - - - - - -
03/07:00am 24.6 ESE 4 6 1011.3 - 0.0 - - - - - - -
03/06:30am 24.8 SE 4 7 1010.8 - 0.0 - - - - - - -
03/06:00am 25.1 ESE 3 5 1010.3 - 0.0 - - - - - - -
03/05:30am 25.4 ESE 3 4 1010.0 - 0.0 - - - - - - -
03/05:00am 25.6 ESE 2 4 1009.8 - 0.0 - - - - - - -
03/04:30am 25.7 ESE 3 4 1009.7 - 0.0 - - - - - - -
03/04:00am 25.9 ESE 4 6 1009.6 - 0.0 - - - - - - -
03/03:30am 26.1 ESE 4 6 1009.7 - 0.0 - - - - - - -
03/03:00am 26.3 E 4 6 1010.0 - 0.0 - - - - - - -
03/02:30am 26.5 ESE 4 7 1010.2 - 0.0 - - - - - - -
03/02:00am 27.1 ESE 3 6 1010.5 - 0.0 - - - - - - -

Other Formats:

Comma delimited format used in spreadsheet applications
http://www.bom.gov.au/fwo/IDD60701/IDD60701.94116.axf

JavaScript Object Notation format (JSON) in row-major order
http://www.bom.gov.au/fwo/IDD60701/IDD60701.94116.json